sensor_id;sensor_type;location;lat;lon;timestamp;P1;durP1;ratioP1;P2;durP2;ratioP2
52982;SDS011;48698;45.736;13.926;2023-07-08T00:02:07;7.20;;;4.60;;
52982;SDS011;48698;45.736;13.926;2023-07-08T00:07:13;7.05;;;4.50;;
52982;SDS011;48698;45.736;13.926;2023-07-08T00:12:43;6.53;;;4.25;;
52982;SDS011;48698;45.736;13.926;2023-07-08T00:17:58;7.32;;;4.45;;
52982;SDS011;48698;45.736;13.926;2023-07-08T00:23:02;6.55;;;4.50;;
52982;SDS011;48698;45.736;13.926;2023-07-08T00:28:09;6.03;;;4.60;;
52982;SDS011;48698;45.736;13.926;2023-07-08T00:33:19;6.93;;;4.57;;
52982;SDS011;48698;45.736;13.926;2023-07-08T00:38:26;6.57;;;4.45;;
52982;SDS011;48698;45.736;13.926;2023-07-08T00:43:34;7.80;;;4.50;;
52982;SDS011;48698;45.736;13.926;2023-07-08T00:48:39;5.35;;;4.22;;
52982;SDS011;48698;45.736;13.926;2023-07-08T00:53:53;8.35;;;4.53;;
52982;SDS011;48698;45.736;13.926;2023-07-08T00:59:00;5.85;;;4.22;;
52982;SDS011;48698;45.736;13.926;2023-07-08T01:04:09;6.95;;;4.10;;
52982;SDS011;48698;45.736;13.926;2023-07-08T01:09:15;7.13;;;4.35;;
52982;SDS011;48698;45.736;13.926;2023-07-08T01:14:18;6.20;;;4.68;;
52982;SDS011;48698;45.736;13.926;2023-07-08T01:19:23;6.60;;;4.60;;
52982;SDS011;48698;45.736;13.926;2023-07-08T01:24:41;7.20;;;4.80;;
52982;SDS011;48698;45.736;13.926;2023-07-08T01:29:46;8.27;;;4.60;;
52982;SDS011;48698;45.736;13.926;2023-07-08T01:34:56;7.13;;;4.40;;
52982;SDS011;48698;45.736;13.926;2023-07-08T01:45:19;7.13;;;4.80;;
52982;SDS011;48698;45.736;13.926;2023-07-08T01:50:24;6.70;;;4.32;;
52982;SDS011;48698;45.736;13.926;2023-07-08T01:55:28;8.15;;;5.10;;
52982;SDS011;48698;45.736;13.926;2023-07-08T02:05:35;7.05;;;4.40;;
52982;SDS011;48698;45.736;13.926;2023-07-08T02:10:39;5.88;;;4.35;;
52982;SDS011;48698;45.736;13.926;2023-07-08T02:15:43;7.50;;;4.38;;
52982;SDS011;48698;45.736;13.926;2023-07-08T02:20:46;7.07;;;5.22;;
52982;SDS011;48698;45.736;13.926;2023-07-08T02:25:59;7.32;;;5.18;;
52982;SDS011;48698;45.736;13.926;2023-07-08T02:31:02;6.80;;;4.40;;
52982;SDS011;48698;45.736;13.926;2023-07-08T02:36:06;7.75;;;4.40;;
52982;SDS011;48698;45.736;13.926;2023-07-08T02:41:08;8.63;;;4.95;;
52982;SDS011;48698;45.736;13.926;2023-07-08T02:46:11;7.63;;;4.43;;
52982;SDS011;48698;45.736;13.926;2023-07-08T02:51:15;6.05;;;4.22;;
52982;SDS011;48698;45.736;13.926;2023-07-08T02:56:18;5.43;;;4.38;;
52982;SDS011;48698;45.736;13.926;2023-07-08T03:01:21;5.30;;;4.00;;
52982;SDS011;48698;45.736;13.926;2023-07-08T03:06:25;7.07;;;4.45;;
52982;SDS011;48698;45.736;13.926;2023-07-08T03:11:28;7.13;;;4.80;;
52982;SDS011;48698;45.736;13.926;2023-07-08T03:16:36;6.60;;;4.70;;
52982;SDS011;48698;45.736;13.926;2023-07-08T03:21:39;9.18;;;4.93;;
52982;SDS011;48698;45.736;13.926;2023-07-08T03:26:42;6.63;;;4.28;;
52982;SDS011;48698;45.736;13.926;2023-07-08T03:31:45;8.77;;;4.55;;
52982;SDS011;48698;45.736;13.926;2023-07-08T03:36:49;6.50;;;4.80;;
52982;SDS011;48698;45.736;13.926;2023-07-08T03:42:03;8.75;;;4.97;;
52982;SDS011;48698;45.736;13.926;2023-07-08T03:47:07;6.30;;;4.75;;
52982;SDS011;48698;45.736;13.926;2023-07-08T03:52:20;6.43;;;4.33;;
52982;SDS011;48698;45.736;13.926;2023-07-08T03:57:23;7.03;;;4.55;;
52982;SDS011;48698;45.736;13.926;2023-07-08T04:02:26;5.30;;;4.43;;
52982;SDS011;48698;45.736;13.926;2023-07-08T04:07:29;6.13;;;4.60;;
52982;SDS011;48698;45.736;13.926;2023-07-08T04:12:42;8.20;;;4.80;;
52982;SDS011;48698;45.736;13.926;2023-07-08T04:17:54;5.82;;;4.65;;
52982;SDS011;48698;45.736;13.926;2023-07-08T04:22:59;7.20;;;4.70;;
52982;SDS011;48698;45.736;13.926;2023-07-08T04:28:03;5.55;;;4.25;;
52982;SDS011;48698;45.736;13.926;2023-07-08T04:33:07;10.38;;;5.15;;
52982;SDS011;48698;45.736;13.926;2023-07-08T04:38:15;8.18;;;4.70;;
52982;SDS011;48698;45.736;13.926;2023-07-08T04:43:21;7.20;;;5.00;;
52982;SDS011;48698;45.736;13.926;2023-07-08T04:48:24;5.85;;;4.45;;
52982;SDS011;48698;45.736;13.926;2023-07-08T04:53:27;7.13;;;4.25;;
52982;SDS011;48698;45.736;13.926;2023-07-08T04:58:30;6.25;;;4.50;;
52982;SDS011;48698;45.736;13.926;2023-07-08T05:03:33;5.80;;;4.55;;
52982;SDS011;48698;45.736;13.926;2023-07-08T05:08:37;7.00;;;4.47;;
52982;SDS011;48698;45.736;13.926;2023-07-08T05:13:41;9.07;;;5.07;;
52982;SDS011;48698;45.736;13.926;2023-07-08T05:18:44;6.47;;;4.18;;
52982;SDS011;48698;45.736;13.926;2023-07-08T05:23:47;6.60;;;4.40;;
52982;SDS011;48698;45.736;13.926;2023-07-08T05:28:53;8.02;;;4.65;;
52982;SDS011;48698;45.736;13.926;2023-07-08T05:33:56;6.97;;;4.38;;
52982;SDS011;48698;45.736;13.926;2023-07-08T05:38:59;5.63;;;4.40;;
52982;SDS011;48698;45.736;13.926;2023-07-08T05:44:02;7.73;;;4.63;;
52982;SDS011;48698;45.736;13.926;2023-07-08T05:49:06;6.53;;;4.40;;
52982;SDS011;48698;45.736;13.926;2023-07-08T05:54:09;6.57;;;4.35;;
52982;SDS011;48698;45.736;13.926;2023-07-08T05:59:12;6.00;;;4.50;;
52982;SDS011;48698;45.736;13.926;2023-07-08T06:04:15;6.05;;;4.20;;
52982;SDS011;48698;45.736;13.926;2023-07-08T06:09:18;6.30;;;4.22;;
52982;SDS011;48698;45.736;13.926;2023-07-08T06:14:21;6.43;;;4.10;;
52982;SDS011;48698;45.736;13.926;2023-07-08T06:19:23;6.22;;;3.70;;
52982;SDS011;48698;45.736;13.926;2023-07-08T06:24:27;7.47;;;4.38;;
52982;SDS011;48698;45.736;13.926;2023-07-08T06:29:30;5.00;;;3.55;;
52982;SDS011;48698;45.736;13.926;2023-07-08T06:34:43;7.38;;;4.22;;
52982;SDS011;48698;45.736;13.926;2023-07-08T06:39:46;5.00;;;3.83;;
52982;SDS011;48698;45.736;13.926;2023-07-08T06:44:48;6.45;;;3.97;;
52982;SDS011;48698;45.736;13.926;2023-07-08T06:49:56;6.68;;;3.90;;
52982;SDS011;48698;45.736;13.926;2023-07-08T06:55:07;4.63;;;3.72;;
52982;SDS011;48698;45.736;13.926;2023-07-08T07:00:12;5.30;;;3.72;;
52982;SDS011;48698;45.736;13.926;2023-07-08T07:05:15;4.40;;;3.00;;
52982;SDS011;48698;45.736;13.926;2023-07-08T07:10:20;5.53;;;2.88;;
52982;SDS011;48698;45.736;13.926;2023-07-08T07:15:23;5.13;;;3.03;;
52982;SDS011;48698;45.736;13.926;2023-07-08T07:20:27;3.80;;;2.80;;
52982;SDS011;48698;45.736;13.926;2023-07-08T07:25:30;6.72;;;3.22;;
52982;SDS011;48698;45.736;13.926;2023-07-08T07:30:33;5.93;;;3.17;;
52982;SDS011;48698;45.736;13.926;2023-07-08T07:35:41;9.00;;;3.50;;
52982;SDS011;48698;45.736;13.926;2023-07-08T07:40:45;6.18;;;2.75;;
52982;SDS011;48698;45.736;13.926;2023-07-08T07:45:49;5.25;;;3.30;;
52982;SDS011;48698;45.736;13.926;2023-07-08T07:50:53;4.20;;;3.20;;
52982;SDS011;48698;45.736;13.926;2023-07-08T07:55:57;5.18;;;3.33;;
52982;SDS011;48698;45.736;13.926;2023-07-08T08:01:11;4.53;;;2.88;;
52982;SDS011;48698;45.736;13.926;2023-07-08T08:06:15;6.05;;;2.97;;
52982;SDS011;48698;45.736;13.926;2023-07-08T08:11:20;4.78;;;3.15;;
52982;SDS011;48698;45.736;13.926;2023-07-08T08:16:25;3.95;;;3.05;;
52982;SDS011;48698;45.736;13.926;2023-07-08T08:21:28;6.13;;;3.10;;
52982;SDS011;48698;45.736;13.926;2023-07-08T08:26:40;5.72;;;3.30;;
52982;SDS011;48698;45.736;13.926;2023-07-08T08:31:43;4.90;;;3.30;;
52982;SDS011;48698;45.736;13.926;2023-07-08T08:36:56;6.65;;;3.80;;
52982;SDS011;48698;45.736;13.926;2023-07-08T08:41:59;4.40;;;3.17;;
52982;SDS011;48698;45.736;13.926;2023-07-08T08:47:25;5.90;;;3.80;;
52982;SDS011;48698;45.736;13.926;2023-07-08T08:58:18;5.50;;;3.70;;
52982;SDS011;48698;45.736;13.926;2023-07-08T10:13:50;5.53;;;3.63;;
52982;SDS011;48698;45.736;13.926;2023-07-08T10:19:16;6.50;;;3.80;;
52982;SDS011;48698;45.736;13.926;2023-07-08T10:29:44;5.10;;;3.80;;
52982;SDS011;48698;45.736;13.926;2023-07-08T11:01:37;5.18;;;3.85;;
52982;SDS011;48698;45.736;13.926;2023-07-08T11:21:22;4.22;;;3.20;;
52982;SDS011;48698;45.736;13.926;2023-07-08T11:26:31;6.10;;;4.05;;
52982;SDS011;48698;45.736;13.926;2023-07-08T11:31:39;4.53;;;3.30;;
52982;SDS011;48698;45.736;13.926;2023-07-08T11:36:53;4.57;;;3.35;;
52982;SDS011;48698;45.736;13.926;2023-07-08T11:42:05;5.80;;;4.00;;
52982;SDS011;48698;45.736;13.926;2023-07-08T11:47:38;4.95;;;3.50;;
52982;SDS011;48698;45.736;13.926;2023-07-08T11:52:52;6.53;;;3.90;;
52982;SDS011;48698;45.736;13.926;2023-07-08T11:58:08;6.13;;;3.50;;
52982;SDS011;48698;45.736;13.926;2023-07-08T12:03:23;6.07;;;4.13;;
52982;SDS011;48698;45.736;13.926;2023-07-08T12:08:37;4.53;;;3.67;;
52982;SDS011;48698;45.736;13.926;2023-07-08T12:13:43;4.50;;;3.78;;
52982;SDS011;48698;45.736;13.926;2023-07-08T12:18:46;6.50;;;4.00;;
52982;SDS011;48698;45.736;13.926;2023-07-08T12:23:52;5.38;;;3.80;;
52982;SDS011;48698;45.736;13.926;2023-07-08T12:28:59;5.13;;;3.67;;
52982;SDS011;48698;45.736;13.926;2023-07-08T12:34:02;5.10;;;3.85;;
52982;SDS011;48698;45.736;13.926;2023-07-08T12:39:11;4.50;;;3.58;;
52982;SDS011;48698;45.736;13.926;2023-07-08T12:44:28;4.97;;;3.67;;
52982;SDS011;48698;45.736;13.926;2023-07-08T12:49:31;5.20;;;3.72;;
52982;SDS011;48698;45.736;13.926;2023-07-08T12:54:37;6.72;;;3.78;;
52982;SDS011;48698;45.736;13.926;2023-07-08T12:59:41;12.25;;;4.75;;
52982;SDS011;48698;45.736;13.926;2023-07-08T13:04:45;5.00;;;3.58;;
52982;SDS011;48698;45.736;13.926;2023-07-08T13:09:52;5.10;;;3.80;;
52982;SDS011;48698;45.736;13.926;2023-07-08T13:14:57;5.50;;;3.70;;
52982;SDS011;48698;45.736;13.926;2023-07-08T13:20:03;5.85;;;3.65;;
52982;SDS011;48698;45.736;13.926;2023-07-08T13:25:09;5.40;;;4.03;;
52982;SDS011;48698;45.736;13.926;2023-07-08T13:30:28;6.55;;;4.18;;
52982;SDS011;48698;45.736;13.926;2023-07-08T13:35:43;5.65;;;3.75;;
52982;SDS011;48698;45.736;13.926;2023-07-08T13:40:50;5.18;;;3.70;;
52982;SDS011;48698;45.736;13.926;2023-07-08T13:46:00;5.13;;;3.60;;
52982;SDS011;48698;45.736;13.926;2023-07-08T13:51:08;5.68;;;3.80;;
52982;SDS011;48698;45.736;13.926;2023-07-08T13:56:31;4.55;;;3.70;;
52982;SDS011;48698;45.736;13.926;2023-07-08T14:01:38;5.15;;;3.92;;
52982;SDS011;48698;45.736;13.926;2023-07-08T14:06:43;4.78;;;3.50;;
52982;SDS011;48698;45.736;13.926;2023-07-08T14:11:47;6.57;;;3.85;;
52982;SDS011;48698;45.736;13.926;2023-07-08T14:16:52;6.00;;;4.00;;
52982;SDS011;48698;45.736;13.926;2023-07-08T14:21:58;4.88;;;3.38;;
52982;SDS011;48698;45.736;13.926;2023-07-08T14:27:04;6.63;;;3.83;;
52982;SDS011;48698;45.736;13.926;2023-07-08T14:32:21;6.78;;;3.95;;
52982;SDS011;48698;45.736;13.926;2023-07-08T14:37:26;6.32;;;4.00;;
52982;SDS011;48698;45.736;13.926;2023-07-08T14:42:30;5.22;;;3.92;;
52982;SDS011;48698;45.736;13.926;2023-07-08T14:47:33;5.72;;;4.10;;
52982;SDS011;48698;45.736;13.926;2023-07-08T14:52:37;6.45;;;3.83;;
52982;SDS011;48698;45.736;13.926;2023-07-08T14:57:45;5.18;;;3.92;;
52982;SDS011;48698;45.736;13.926;2023-07-08T15:02:51;5.60;;;4.10;;
52982;SDS011;48698;45.736;13.926;2023-07-08T15:07:56;5.63;;;3.88;;
52982;SDS011;48698;45.736;13.926;2023-07-08T15:13:02;4.32;;;3.72;;
52982;SDS011;48698;45.736;13.926;2023-07-08T15:18:12;6.90;;;4.30;;
52982;SDS011;48698;45.736;13.926;2023-07-08T15:23:17;5.40;;;4.00;;
52982;SDS011;48698;45.736;13.926;2023-07-08T15:28:33;6.18;;;3.90;;
52982;SDS011;48698;45.736;13.926;2023-07-08T15:34:00;6.10;;;4.03;;
52982;SDS011;48698;45.736;13.926;2023-07-08T15:39:03;9.50;;;4.20;;
52982;SDS011;48698;45.736;13.926;2023-07-08T15:44:08;5.43;;;3.90;;
52982;SDS011;48698;45.736;13.926;2023-07-08T15:54:21;4.97;;;4.05;;
52982;SDS011;48698;45.736;13.926;2023-07-08T15:59:26;6.82;;;4.07;;
52982;SDS011;48698;45.736;13.926;2023-07-08T16:04:32;6.53;;;4.93;;
52982;SDS011;48698;45.736;13.926;2023-07-08T16:09:38;5.85;;;3.72;;
52982;SDS011;48698;45.736;13.926;2023-07-08T16:14:42;5.43;;;4.15;;
52982;SDS011;48698;45.736;13.926;2023-07-08T16:19:46;8.38;;;4.57;;
52982;SDS011;48698;45.736;13.926;2023-07-08T16:24:49;8.55;;;4.03;;
52982;SDS011;48698;45.736;13.926;2023-07-08T16:29:53;6.97;;;4.25;;
52982;SDS011;48698;45.736;13.926;2023-07-08T16:34:56;7.07;;;4.40;;
52982;SDS011;48698;45.736;13.926;2023-07-08T16:40:00;8.35;;;4.15;;
52982;SDS011;48698;45.736;13.926;2023-07-08T16:45:07;9.35;;;4.20;;
52982;SDS011;48698;45.736;13.926;2023-07-08T16:50:16;5.15;;;4.28;;
52982;SDS011;48698;45.736;13.926;2023-07-08T16:55:21;6.00;;;3.88;;
52982;SDS011;48698;45.736;13.926;2023-07-08T17:00:25;6.10;;;3.97;;
52982;SDS011;48698;45.736;13.926;2023-07-08T17:05:33;7.53;;;4.28;;
52982;SDS011;48698;45.736;13.926;2023-07-08T17:10:37;5.60;;;4.20;;
52982;SDS011;48698;45.736;13.926;2023-07-08T17:21:02;5.00;;;4.07;;
52982;SDS011;48698;45.736;13.926;2023-07-08T17:26:06;5.40;;;4.15;;
52982;SDS011;48698;45.736;13.926;2023-07-08T17:31:13;5.10;;;4.20;;
52982;SDS011;48698;45.736;13.926;2023-07-08T17:36:34;6.25;;;4.10;;
52982;SDS011;48698;45.736;13.926;2023-07-08T17:41:39;5.90;;;4.22;;
52982;SDS011;48698;45.736;13.926;2023-07-08T17:46:43;5.40;;;3.80;;
52982;SDS011;48698;45.736;13.926;2023-07-08T17:51:57;5.32;;;4.10;;
52982;SDS011;48698;45.736;13.926;2023-07-08T17:57:01;5.07;;;4.10;;
52982;SDS011;48698;45.736;13.926;2023-07-08T18:02:13;6.57;;;4.13;;
52982;SDS011;48698;45.736;13.926;2023-07-08T18:07:19;10.02;;;3.88;;
52982;SDS011;48698;45.736;13.926;2023-07-08T18:12:28;6.90;;;4.40;;
52982;SDS011;48698;45.736;13.926;2023-07-08T18:17:32;8.30;;;4.43;;
52982;SDS011;48698;45.736;13.926;2023-07-08T18:22:47;6.00;;;4.00;;
52982;SDS011;48698;45.736;13.926;2023-07-08T18:27:54;7.15;;;4.22;;
52982;SDS011;48698;45.736;13.926;2023-07-08T18:32:58;23.42;;;6.13;;
52982;SDS011;48698;45.736;13.926;2023-07-08T18:38:02;68.90;;;8.60;;
52982;SDS011;48698;45.736;13.926;2023-07-08T18:43:27;45.20;;;7.10;;
52982;SDS011;48698;45.736;13.926;2023-07-08T18:48:31;25.20;;;5.88;;
52982;SDS011;48698;45.736;13.926;2023-07-08T18:53:34;15.43;;;5.22;;
52982;SDS011;48698;45.736;13.926;2023-07-08T18:58:46;6.65;;;4.20;;
52982;SDS011;48698;45.736;13.926;2023-07-08T19:03:50;6.80;;;4.97;;
52982;SDS011;48698;45.736;13.926;2023-07-08T19:08:55;6.47;;;4.05;;
52982;SDS011;48698;45.736;13.926;2023-07-08T19:13:59;5.78;;;4.57;;
52982;SDS011;48698;45.736;13.926;2023-07-08T19:19:03;6.00;;;4.57;;
52982;SDS011;48698;45.736;13.926;2023-07-08T19:24:10;11.65;;;4.80;;
52982;SDS011;48698;45.736;13.926;2023-07-08T19:29:38;6.13;;;4.97;;
52982;SDS011;48698;45.736;13.926;2023-07-08T19:34:42;7.80;;;4.90;;
52982;SDS011;48698;45.736;13.926;2023-07-08T19:39:48;8.30;;;5.30;;
52982;SDS011;48698;45.736;13.926;2023-07-08T19:45:03;7.68;;;4.80;;
52982;SDS011;48698;45.736;13.926;2023-07-08T19:50:12;6.35;;;4.88;;
52982;SDS011;48698;45.736;13.926;2023-07-08T19:55:16;7.70;;;5.00;;
52982;SDS011;48698;45.736;13.926;2023-07-08T20:00:22;6.28;;;5.47;;
52982;SDS011;48698;45.736;13.926;2023-07-08T20:05:36;7.32;;;5.50;;
52982;SDS011;48698;45.736;13.926;2023-07-08T20:10:40;7.78;;;5.93;;
52982;SDS011;48698;45.736;13.926;2023-07-08T20:15:43;11.65;;;7.07;;
52982;SDS011;48698;45.736;13.926;2023-07-08T20:20:57;11.50;;;5.90;;
52982;SDS011;48698;45.736;13.926;2023-07-08T20:26:03;12.02;;;5.60;;
52982;SDS011;48698;45.736;13.926;2023-07-08T20:31:27;13.90;;;5.72;;
52982;SDS011;48698;45.736;13.926;2023-07-08T20:36:32;7.40;;;5.80;;
52982;SDS011;48698;45.736;13.926;2023-07-08T20:41:37;6.35;;;5.32;;
52982;SDS011;48698;45.736;13.926;2023-07-08T20:46:40;5.80;;;5.18;;
52982;SDS011;48698;45.736;13.926;2023-07-08T20:52:02;7.93;;;5.38;;
52982;SDS011;48698;45.736;13.926;2023-07-08T20:57:11;6.88;;;5.22;;
52982;SDS011;48698;45.736;13.926;2023-07-08T21:02:20;7.80;;;5.38;;
52982;SDS011;48698;45.736;13.926;2023-07-08T21:07:28;12.73;;;5.30;;
52982;SDS011;48698;45.736;13.926;2023-07-08T21:12:32;9.45;;;5.22;;
52982;SDS011;48698;45.736;13.926;2023-07-08T21:17:35;15.85;;;5.85;;
52982;SDS011;48698;45.736;13.926;2023-07-08T21:22:41;10.70;;;4.78;;
52982;SDS011;48698;45.736;13.926;2023-07-08T21:27:44;7.57;;;5.18;;
52982;SDS011;48698;45.736;13.926;2023-07-08T21:32:53;9.13;;;5.63;;
52982;SDS011;48698;45.736;13.926;2023-07-08T21:37:58;7.75;;;5.18;;
52982;SDS011;48698;45.736;13.926;2023-07-08T21:43:19;6.97;;;5.05;;
52982;SDS011;48698;45.736;13.926;2023-07-08T21:48:37;8.00;;;5.78;;
52982;SDS011;48698;45.736;13.926;2023-07-08T21:53:51;8.02;;;5.88;;
52982;SDS011;48698;45.736;13.926;2023-07-08T21:58:56;7.65;;;5.72;;
52982;SDS011;48698;45.736;13.926;2023-07-08T22:04:00;9.82;;;5.97;;
52982;SDS011;48698;45.736;13.926;2023-07-08T22:09:05;7.68;;;5.25;;
52982;SDS011;48698;45.736;13.926;2023-07-08T22:14:19;8.38;;;5.15;;
52982;SDS011;48698;45.736;13.926;2023-07-08T22:19:25;7.63;;;5.50;;
52982;SDS011;48698;45.736;13.926;2023-07-08T22:24:29;8.02;;;5.90;;
52982;SDS011;48698;45.736;13.926;2023-07-08T22:29:35;6.55;;;5.10;;
52982;SDS011;48698;45.736;13.926;2023-07-08T22:34:39;8.40;;;5.55;;
52982;SDS011;48698;45.736;13.926;2023-07-08T22:39:43;6.63;;;5.45;;
52982;SDS011;48698;45.736;13.926;2023-07-08T22:44:47;8.70;;;6.35;;
52982;SDS011;48698;45.736;13.926;2023-07-08T22:49:50;7.57;;;5.30;;
52982;SDS011;48698;45.736;13.926;2023-07-08T22:54:55;9.23;;;5.65;;
52982;SDS011;48698;45.736;13.926;2023-07-08T23:00:00;6.85;;;5.47;;
52982;SDS011;48698;45.736;13.926;2023-07-08T23:05:03;6.27;;;5.37;;
52982;SDS011;48698;45.736;13.926;2023-07-08T23:10:09;7.27;;;5.80;;
52982;SDS011;48698;45.736;13.926;2023-07-08T23:15:15;8.05;;;5.90;;
52982;SDS011;48698;45.736;13.926;2023-07-08T23:20:20;8.38;;;6.00;;
52982;SDS011;48698;45.736;13.926;2023-07-08T23:25:37;9.70;;;5.75;;
52982;SDS011;48698;45.736;13.926;2023-07-08T23:30:41;8.32;;;6.20;;
52982;SDS011;48698;45.736;13.926;2023-07-08T23:35:44;8.53;;;5.63;;
52982;SDS011;48698;45.736;13.926;2023-07-08T23:40:59;8.30;;;5.80;;
52982;SDS011;48698;45.736;13.926;2023-07-08T23:46:03;7.95;;;6.05;;
52982;SDS011;48698;45.736;13.926;2023-07-08T23:51:07;8.90;;;6.35;;
52982;SDS011;48698;45.736;13.926;2023-07-08T23:56:15;7.80;;;6.20;;
